Estación meteorológica de Cercs - La Baells (Berguedà, Cercs)

Consulta los datos en tiempo real de la estación meteorológica de Cercs - La Baells





Hora UTC 07:40
Temperatura 21.4 ºC
Humedad 66.1 %
Presión 1021.2 hPa
Pluja 0.0 mm
Velocidad viento 0.3 km/h
Dirección viento NNW

Datos diarios 2026-09-04



Hora UTC (invierno +1h; verano +2h)
DADES NO VALIDADES
Temperatura (ºC) Humedad (%) Presión (hPa) Velocidad viento (km/h) Precipitación (mm)
Hora UTC Aire Humedad Presión Vel. Dir. Vel. Max Dir. Intent. máx 5 min.
00:05 20.3 80.1 1022.2 0.2 S 0.2 SSW 0.0
00:10 20.1 81.2 1022.2 0.1 SSW 0.2 SSW 0.0
00:15 20.0 81.4 1022.2 0.0 SSW 0.2 SSW 0.0
00:20 19.8 82.3 1022.2 0.2 NW 0.2 SSW 0.0
00:25 19.7 82.4 1022.2 0.2 NNW 0.2 SSW 0.0
00:30 19.7 83.1 1022.2 0.2 S 0.2 SSW 0.0
00:35 19.7 83.2 1022.2 0.2 SSE 0.2 SSW 0.0
00:40 19.5 82.9 1022.2 0.1 W 0.2 SSW 0.0
00:45 19.5 82.8 1022.2 0.0 W 0.2 SSW 0.0
00:50 19.5 81.9 1022.2 0.5 NW 0.5 NW 0.0
00:55 19.5 81.7 1022.2 0.6 NW 0.6 NW 0.0
01:00 19.5 82.8 1022.2 0.1 E 0.6 NW 0.0
01:05 19.5 83.0 1022.2 0.0 NE 0.6 NW 0.0
01:10 19.4 84.4 1022.2 0.1 SE 0.6 NW 0.0
01:15 19.4 84.7 1022.2 0.1 SSE 0.6 NW 0.0
01:20 19.2 85.3 1022.2 0.1 SE 0.6 NW 0.0
01:25 19.1 85.4 1022.2 0.1 SE 0.6 NW 0.0
01:30 19.1 84.8 1022.2 0.1 WNW 0.6 NW 0.0
01:35 19.0 84.7 1022.2 0.1 NNW 0.6 NW 0.0
01:40 19.0 85.3 1022.2 0.1 NNW 0.6 NW 0.0
01:45 19.0 85.4 1022.2 0.1 NNW 0.6 NW 0.0
01:50 18.9 84.3 1022.2 0.2 NNW 0.6 NW 0.0
01:55 18.9 84.1 1022.2 0.2 NNW 0.6 NW 0.0
01:55 18.9 84.1 1022.2 0.2 NNW 0.6 NW 0.0
01:55 18.9 84.1 1022.2 0.2 NNW 0.6 NW 0.0
02:15 18.8 84.2 1022.2 0.1 W 0.6 NW 0.0
02:20 18.8 84.1 1022.2 0.1 SSW 0.6 NW 0.0
02:25 18.8 84.1 1022.2 0.1 S 0.6 NW 0.0
02:30 18.7 84.4 1022.2 0.1 SE 0.6 NW 0.0
02:35 18.6 84.5 1022.2 0.1 SE 0.6 NW 0.0
02:40 18.5 84.7 1022.2 0.0 WSW 0.6 NW 0.0
02:45 18.5 84.7 1022.2 0.0 WSW 0.6 NW 0.0
02:50 18.4 84.4 1022.2 0.1 WNW 0.6 NW 0.0
02:55 18.4 84.3 1022.2 0.1 WNW 0.6 NW 0.0
03:00 18.4 85.1 1022.2 0.1 NNW 0.6 NW 0.0
03:05 18.4 85.2 1022.2 0.1 NNW 0.6 NW 0.0
03:10 18.4 86.4 1022.2 0.1 SSW 0.6 NW 0.0
03:15 18.4 86.7 1022.2 0.1 S 0.6 NW 0.0
03:20 18.3 86.6 1022.2 0.2 NW 0.6 NW 0.0
03:25 18.3 86.6 1022.2 0.2 NNW 0.6 NW 0.0
03:30 18.3 85.0 1022.2 0.1 NNW 0.6 NW 0.0
03:35 18.3 84.6 1022.2 0.1 NNW 0.6 NW 0.0
03:40 18.4 83.7 1021.3 0.4 NW 0.6 NW 0.0
03:45 18.4 83.5 1021.2 0.5 NW 0.6 NW 0.0
03:50 18.4 82.8 1021.2 0.2 NNW 0.6 NW 0.0
03:55 18.3 82.7 1021.2 0.2 NNW 0.6 NW 0.0
04:00 18.4 82.1 1021.2 0.5 NW 0.6 NW 0.0
04:05 18.4 82.0 1021.2 0.5 NW 0.6 NW 0.0
04:10 18.4 81.0 1021.2 0.6 NNW 0.6 NW 0.0
04:15 18.4 80.8 1021.2 0.6 NNW 0.6 NNW 0.0
04:20 18.4 81.8 1021.2 0.7 NNW 0.7 NNW 0.0
04:25 18.4 82.0 1021.2 0.8 NNW 0.8 NNW 0.0
04:30 18.4 81.8 1021.2 0.6 NNW 0.8 NNW 0.0
04:35 18.4 81.7 1021.2 0.6 NNW 0.8 NNW 0.0
04:40 18.4 81.9 1021.2 0.6 NNW 0.8 NNW 0.0
04:45 18.4 81.9 1021.2 0.6 NNW 0.8 NNW 0.0
04:50 18.3 83.1 1021.2 0.4 NNW 0.8 NNW 0.0
04:55 18.3 83.4 1021.2 0.4 NNW 0.8 NNW 0.0
05:00 18.1 84.8 1021.2 0.3 NNW 0.8 NNW 0.0
05:05 18.0 85.1 1021.2 0.3 NNW 0.8 NNW 0.0
05:10 18.0 85.3 1021.2 0.7 NNW 0.8 NNW 0.0
05:15 18.0 85.3 1021.2 0.8 NNW 0.8 NNW 0.0
05:20 18.0 83.9 1021.2 1.2 NNW 1.2 NNW 0.0
05:25 18.0 83.7 1021.2 1.3 NNW 1.3 NNW 0.0
05:30 18.0 82.3 1021.2 0.7 NNW 1.3 NNW 0.0
05:35 18.0 82.0 1021.2 0.5 NNW 1.3 NNW 0.0
05:40 18.0 82.6 1021.2 0.3 NNW 1.3 NNW 0.0
05:45 18.0 82.7 1021.2 0.3 NNW 1.3 NNW 0.0
05:50 17.9 82.8 1021.2 0.4 NNW 1.3 NNW 0.0
05:55 17.9 82.8 1021.2 0.4 NW 1.3 NNW 0.0
06:00 17.8 83.3 1021.2 0.4 NNW 1.3 NNW 0.0
06:00 17.8 83.3 1021.2 0.4 NNW 1.3 NNW 0.0
06:10 17.8 83.3 1021.2 0.5 NNW 1.3 NNW 0.0
06:15 17.9 83.3 1021.2 0.5 NNW 1.3 NNW 0.0
06:20 17.9 84.2 1021.2 0.3 NNW 1.3 NNW 0.0
06:25 17.9 84.4 1021.2 0.3 NNW 1.3 NNW 0.0
06:30 18.1 82.9 1021.2 0.1 NW 1.3 NNW 0.0
06:35 18.2 82.5 1021.2 0.1 NW 1.3 NNW 0.0
06:40 18.6 78.5 1021.2 0.2 NNW 1.3 NNW 0.0
06:45 18.6 77.7 1021.2 0.3 NNW 1.3 NNW 0.0
06:50 19.1 74.9 1021.2 0.4 NW 1.3 NNW 0.0
06:55 19.2 74.3 1021.2 0.4 NW 1.3 NNW 0.0
07:00 19.6 72.5 1021.2 0.2 WNW 1.3 NNW 0.0
07:05 19.7 72.2 1021.2 0.2 WNW 1.3 NNW 0.0
07:10 20.0 70.5 1021.2 0.2 WNW 1.3 NNW 0.0
07:15 20.1 70.1 1021.2 0.2 WNW 1.3 NNW 0.0
07:20 20.4 70.3 1021.2 0.2 NW 1.3 NNW 0.0
07:25 20.5 70.3 1021.2 0.2 NW 1.3 NNW 0.0
07:30 20.8 68.0 1021.2 0.7 NW 1.3 NNW 0.0
07:35 20.8 67.7 1021.2 0.8 NW 1.3 NNW 0.0
07:40 21.4 66.1 1021.2 0.3 NNW 1.3 NNW 0.0
Máxima 21.4 86.7 1022.2 1.3 NNW 1.3 NNW 0.0
Mínima 17.8 66.1 1021.2
Total 0.0